Time;durP1;ratioP1;P1;durP2;ratioP2;P2;SDS_P1;SDS_P2;PMS_P1;PMS_P2;Temp;Humidity;BMP_temperature;BMP_pressure;BME280_temperature;BME280_humidity;BME280_pressure;Samples;Min_cycle;Max_cycle;Signal;HPM_P1;HPM_P2
2022/05/30 00:02:11;;;;;;;19.15;5.03;;;;;;;28.09;49.20;97176.00;4889144;29;20386;-65
2022/05/30 00:04:54;;;;;;;14.55;4.95;;;;;;;28.16;50.50;97168.94;4883906;29;20139;-65
2022/05/30 00:07:44;;;;;;;22.83;4.88;;;;;;;28.20;52.38;97166.69;4882860;29;20065;-66
2022/05/30 00:10:26;;;;;;;11.43;4.18;;;;;;;28.21;50.82;97178.94;4890032;29;20045;-65
2022/05/30 00:13:14;;;;;;;11.77;4.13;;;;;;;28.22;54.50;97181.41;4888883;29;20049;-65
2022/05/30 00:16:09;;;;;;;18.40;4.25;;;;;;;28.17;53.70;97183.81;4870550;29;20473;-65
2022/05/30 00:18:52;;;;;;;20.38;4.45;;;;;;;28.15;50.45;97193.75;4871477;29;20128;-65
2022/05/30 00:21:47;;;;;;;9.98;4.20;;;;;;;28.26;51.40;97187.94;4870499;29;20390;-65
2022/05/30 00:24:24;;;;;;;12.57;4.60;;;;;;;28.26;53.66;97201.19;4871031;29;20049;-65
2022/05/30 00:27:19;;;;;;;15.32;4.38;;;;;;;28.25;55.77;97193.44;4871129;29;20064;-65
2022/05/30 00:29:55;;;;;;;15.80;5.53;;;;;;;28.24;53.70;97205.06;4871652;29;20044;-65
2022/05/30 00:32:50;;;;;;;22.08;7.53;;;;;;;28.25;54.01;97204.88;4872328;29;20048;-65
2022/05/30 00:35:26;;;;;;;23.45;7.65;;;;;;;28.27;56.81;97210.75;4870842;29;20453;-66
2022/05/30 00:38:15;;;;;;;26.08;9.52;;;;;;;28.31;55.86;97214.69;4870698;29;20500;-64
2022/05/30 00:41:06;;;;;;;35.85;11.95;;;;;;;28.28;52.11;97220.34;4871412;29;20045;-65
2022/05/30 00:43:48;;;;;;;43.60;17.00;;;;;;;28.36;56.60;97219.38;4871097;29;20052;-65
2022/05/30 00:46:37;;;;;;;59.13;24.20;;;;;;;28.31;53.28;97227.94;4882999;29;20063;-65
2022/05/30 00:49:19;;;;;;;55.38;26.38;;;;;;;28.38;55.77;97225.31;4870874;29;20052;-64
2022/05/30 00:52:09;;;;;;;63.00;29.30;;;;;;;28.38;54.89;97223.50;4869177;29;20053;-65
2022/05/30 00:55:16;;;;;;;69.25;32.63;;;;;;;28.39;56.15;97227.78;4869980;29;20041;-65
2022/05/30 00:58:07;;;;;;;76.35;34.47;;;;;;;28.43;57.56;97233.50;4870847;29;20059;-64
2022/05/30 01:00:49;;;;;;;68.55;33.70;;;;;;;28.48;60.60;97239.88;4870379;29;20052;-65
2022/05/30 01:06:42;;;;;;;73.40;33.08;;;;;;;28.51;60.23;97242.09;4853038;29;20069;-64
2022/05/30 01:09:44;;;;;;;70.53;33.15;;;;;;;28.54;61.04;97244.38;4854633;29;20537;-65
2022/05/30 01:12:41;;;;;;;67.72;34.33;;;;;;;28.58;62.91;97249.28;4888426;29;20087;-65
2022/05/30 01:15:26;;;;;;;68.38;32.10;;;;;;;28.61;62.79;97259.50;4873637;29;20136;-65
2022/05/30 01:18:25;;;;;;;69.90;34.17;;;;;;;28.62;61.90;97267.25;4884350;29;20686;-64
2022/05/30 01:21:19;;;;;;;75.97;34.22;;;;;;;28.67;61.57;97270.13;4862444;29;20165;-65
2022/05/30 01:24:30;;;;;;;67.95;31.38;;;;;;;28.75;62.98;97300.97;4863821;29;20238;-64
2022/05/30 01:27:35;;;;;;;90.07;38.80;;;;;;;28.74;60.38;97323.19;4881000;29;20056;-64
2022/05/30 01:30:24;;;;;;;90.28;43.63;;;;;;;28.75;58.08;97340.75;4869054;29;20048;-63
2022/05/30 01:33:06;;;;;;;73.30;38.67;;;;;;;28.75;57.39;97359.31;4884343;29;20143;-64
2022/05/30 01:35:56;;;;;;;66.30;24.55;;;;;;;28.76;54.65;97348.53;4903435;29;20052;-65
2022/05/30 01:38:46;;;;;;;51.58;18.80;;;;;;;28.85;54.24;97358.00;4888840;29;20044;-64
2022/05/30 01:41:44;;;;;;;41.22;16.13;;;;;;;28.93;55.75;97333.16;4882795;29;20060;-64
2022/05/30 01:44:33;;;;;;;36.42;13.18;;;;;;;28.96;54.63;97335.44;4868905;29;20049;-65
2022/05/30 01:47:23;;;;;;;34.85;13.77;;;;;;;29.08;56.00;97362.22;4868949;29;20140;-64
2022/05/30 01:50:07;;;;;;;28.90;12.15;;;;;;;29.19;57.27;97377.59;4869406;29;20045;-64
2022/05/30 01:53:02;;;;;;;38.58;12.13;;;;;;;29.22;52.57;97383.31;4868891;29;20053;-66
2022/05/30 01:56:04;;;;;;;47.38;11.98;;;;;;;29.33;50.49;97392.56;4872255;29;20049;-65
2022/05/30 01:58:54;;;;;;;32.05;11.23;;;;;;;29.47;51.69;97382.88;4887487;29;20580;-64
2022/05/30 02:02:21;;;;;;;28.23;10.05;;;;;;;29.53;51.33;97364.31;4866346;29;20049;-67
2022/05/30 02:05:12;;;;;;;29.00;9.35;;;;;;;29.69;52.79;97376.44;4867446;29;20481;-65
2022/05/30 02:07:47;;;;;;;30.85;10.52;;;;;;;29.79;54.15;97397.28;4882579;29;20164;-64
2022/05/30 02:10:38;;;;;;;22.48;9.57;;;;;;;29.91;54.22;97409.81;4888127;29;20143;-65
2022/05/30 02:13:34;;;;;;;42.22;10.77;;;;;;;29.96;49.92;97415.38;4888105;29;20056;-64
2022/05/30 02:19:48;;;;;;;33.35;11.98;;;;;;;30.16;50.96;97399.50;4866732;29;20172;-66
2022/05/30 02:22:31;;;;;;;38.38;12.88;;;;;;;30.32;54.72;97416.91;4869192;29;20057;-64
2022/05/30 02:25:19;;;;;;;43.63;13.80;;;;;;;30.25;50.13;97426.72;4865272;29;20054;-66
2022/05/30 02:28:02;;;;;;;45.75;14.05;;;;;;;30.32;47.54;97424.88;4857769;29;20059;-64
2022/05/30 02:30:52;;;;;;;35.88;13.48;;;;;;;30.36;46.71;97423.44;4872010;29;20040;-65
2022/05/30 02:36:44;;;;;;;30.88;10.23;;;;;;;30.52;46.29;97409.81;4872725;29;20429;-65
2022/05/30 02:39:39;;;;;;;37.55;11.02;;;;;;;30.64;49.45;97408.19;4872015;29;20060;-65
2022/05/30 02:42:33;;;;;;;27.27;9.23;;;;;;;30.64;48.85;97410.03;4873193;29;20056;-65
2022/05/30 02:45:30;;;;;;;23.95;9.05;;;;;;;30.80;48.29;97412.28;4882023;29;20048;-65
2022/05/30 02:48:06;;;;;;;26.08;8.80;;;;;;;31.01;50.01;97414.72;4906374;29;20060;-65
2022/05/30 02:50:56;;;;;;;25.02;10.07;;;;;;;31.04;46.69;97422.31;4906951;29;20048;-65
2022/05/30 02:53:37;;;;;;;30.85;10.35;;;;;;;31.12;46.81;97429.28;4897597;29;20052;-65
2022/05/30 02:56:55;;;;;;;23.25;10.65;;;;;;;31.14;46.52;97429.88;4881888;29;20401;-64
2022/05/30 02:59:38;;;;;;;30.08;10.32;;;;;;;31.15;46.87;97426.19;4881390;29;20052;-65
2022/05/30 03:02:28;;;;;;;30.02;11.07;;;;;;;31.17;43.42;97418.81;4894753;29;20057;-64
2022/05/30 03:05:10;;;;;;;34.08;12.13;;;;;;;31.40;46.22;97408.53;4894141;29;20061;-65
2022/05/30 03:08:11;;;;;;;31.40;12.02;;;;;;;31.67;46.25;97416.47;4896570;29;20449;-64
2022/05/30 03:11:11;;;;;;;27.73;11.70;;;;;;;31.76;46.69;97415.22;4881653;29;20050;-64
2022/05/30 03:14:16;;;;;;;25.40;11.07;;;;;;;31.65;45.31;97422.00;4880378;29;20068;-65
2022/05/30 03:17:10;;;;;;;26.58;10.73;;;;;;;31.93;45.16;97425.16;4880558;29;20047;-65
2022/05/30 03:20:01;;;;;;;28.83;11.00;;;;;;;31.93;45.40;97429.66;4873957;29;20045;-64
2022/05/30 03:22:43;;;;;;;32.27;10.87;;;;;;;31.98;45.43;97427.22;4878410;29;20473;-65
2022/05/30 03:25:46;;;;;;;26.90;10.10;;;;;;;32.12;44.07;97431.44;4880259;29;20529;-64
2022/05/30 03:28:31;;;;;;;26.60;8.95;;;;;;;32.18;45.42;97433.28;4880273;29;20091;-64
2022/05/30 03:31:21;;;;;;;23.73;8.40;;;;;;;32.17;45.13;97428.97;4870640;29;20321;-65
2022/05/30 03:34:04;;;;;;;23.23;7.05;;;;;;;32.32;42.97;97428.72;4881777;29;20472;-64
2022/05/30 03:36:53;;;;;;;26.83;8.27;;;;;;;32.32;41.09;97436.72;4864577;29;20051;-64
2022/05/30 03:39:57;;;;;;;;;;;;;;;32.36;39.53;97427.22;4870800;29;20476;-64
2022/05/30 03:43:09;;;;;;;17.30;6.40;;;;;;;32.52;39.93;97425.91;4877993;29;19940;-64
2022/05/30 03:45:57;;;;;;;23.17;9.20;;;;;;;32.63;40.21;97425.22;4886223;29;20040;-64
2022/05/30 03:48:46;;;;;;;25.45;10.90;;;;;;;32.45;40.84;97420.59;4870164;29;20092;-64
2022/05/30 03:51:36;;;;;;;28.05;11.38;;;;;;;32.72;44.27;97421.28;4870647;29;20053;-65
2022/05/30 03:54:18;;;;;;;34.97;10.80;;;;;;;32.88;44.38;97427.91;4877630;29;20048;-65
2022/05/30 03:57:07;;;;;;;34.45;9.88;;;;;;;33.10;45.25;97433.69;4890800;29;20207;-64
2022/05/30 03:59:49;;;;;;;28.08;10.68;;;;;;;33.21;44.11;97433.78;4904544;29;20123;-64
2022/05/30 04:02:48;;;;;;;31.73;10.82;;;;;;;33.22;40.92;97440.78;4886243;29;20052;-64
2022/05/30 04:05:38;;;;;;;27.60;10.73;;;;;;;33.36;45.37;97433.47;4878863;29;20473;-65
2022/05/30 04:08:20;;;;;;;37.03;11.77;;;;;;;33.29;41.97;97435.34;4886703;29;20099;-64
2022/05/30 04:11:28;;;;;;;30.02;12.70;;;;;;;33.30;39.13;97437.00;4877968;29;20067;-65
2022/05/30 04:14:33;;;;;;;40.28;13.77;;;;;;;33.55;42.94;97434.28;4881471;29;20684;-65
2022/05/30 04:17:34;;;;;;;30.83;13.73;;;;;;;33.65;41.24;97430.06;4881331;29;20056;-64
2022/05/30 04:20:24;;;;;;;38.63;14.93;;;;;;;33.57;39.05;97430.34;4850812;29;20113;-64
2022/05/30 04:23:12;;;;;;;23.73;10.50;;;;;;;33.75;38.08;97438.41;4866974;29;20509;-63
2022/05/30 04:26:10;;;;;;;27.08;10.45;;;;;;;33.89;40.38;97443.56;4866773;29;20072;-64
2022/05/30 04:28:59;;;;;;;21.60;9.38;;;;;;;33.99;39.13;97447.38;4896189;29;20437;-64
2022/05/30 04:31:41;;;;;;;21.50;8.52;;;;;;;34.11;40.98;97444.72;4889322;29;20378;-63
2022/05/30 04:34:30;;;;;;;21.77;7.25;;;;;;;34.40;40.15;97440.47;4903040;29;20045;-63
2022/05/30 04:37:13;;;;;;;21.50;6.97;;;;;;;34.51;40.38;97445.84;4885926;29;20119;-64
2022/05/30 04:40:20;;;;;;;24.52;7.20;;;;;;;34.36;37.96;97448.13;4887249;29;20055;-63
2022/05/30 04:43:28;;;;;;;37.95;6.45;;;;;;;34.35;41.89;97445.66;4880040;29;20390;-64
2022/05/30 04:46:35;;;;;;;21.35;5.00;;;;;;;34.27;38.33;97449.47;4880178;29;20056;-65
2022/05/30 04:49:17;;;;;;;22.45;5.40;;;;;;;34.33;36.41;97447.75;4874773;29;20052;-65
2022/05/30 04:52:07;;;;;;;19.90;5.43;;;;;;;34.46;34.63;97443.03;4893932;29;20060;-65
2022/05/30 04:54:49;;;;;;;18.17;5.53;;;;;;;34.59;38.75;97443.88;4877602;29;20056;-65
2022/05/30 04:57:53;;;;;;;20.77;5.97;;;;;;;34.65;39.13;97442.94;4885675;29;20052;-64
2022/05/30 05:01:05;;;;;;;29.67;5.35;;;;;;;34.76;39.50;97436.84;4876534;29;20520;-65
2022/05/30 05:03:54;;;;;;;22.52;5.80;;;;;;;34.95;39.13;97434.91;4868679;29;20140;-65
2022/05/30 05:06:43;;;;;;;56.80;11.00;;;;;;;34.96;35.38;97440.03;4868537;29;20052;-65
2022/05/30 05:09:52;;;;;;;20.13;4.95;;;;;;;34.72;34.37;97441.81;4868566;29;20056;-64
2022/05/30 05:12:52;;;;;;;20.48;5.15;;;;;;;34.89;35.43;97441.97;4868925;29;20148;-65
2022/05/30 05:16:11;;;;;;;25.35;5.80;;;;;;;35.22;35.00;97436.91;4869797;29;20168;-65
2022/05/30 05:18:55;;;;;;;21.08;5.45;;;;;;;35.12;35.12;97431.28;4868129;29;20064;-65
2022/05/30 05:21:47;;;;;;;17.38;6.55;;;;;;;35.40;36.21;97443.19;4869694;29;20064;-65
2022/05/30 05:24:43;;;;;;;25.92;5.10;;;;;;;35.25;33.33;97435.66;4865884;29;20167;-64
2022/05/30 05:27:55;;;;;;;28.48;7.22;;;;;;;35.35;36.58;97430.53;4873496;29;20124;-66
2022/05/30 05:30:39;;;;;;;37.28;6.70;;;;;;;35.18;32.52;97432.25;4876070;29;20053;-66
2022/05/30 05:33:28;;;;;;;25.05;6.20;;;;;;;35.43;39.11;97429.34;4873378;29;20065;-66
2022/05/30 05:36:11;;;;;;;36.90;8.40;;;;;;;35.45;34.76;97433.41;4880248;29;20052;-66
2022/05/30 05:39:00;;;;;;;29.85;6.13;;;;;;;35.41;34.21;97428.75;4904175;29;20132;-66
2022/05/30 05:42:03;;;;;;;30.05;5.90;;;;;;;35.46;33.80;97426.19;4882907;29;20068;-66
2022/05/30 05:45:00;;;;;;;33.95;6.28;;;;;;;35.47;34.36;97433.16;4893236;29;20053;-66
2022/05/30 05:47:35;;;;;;;29.02;6.80;;;;;;;35.50;35.27;97430.84;4896384;29;20076;-67
2022/05/30 05:50:25;;;;;;;35.65;7.57;;;;;;;35.34;34.93;97426.22;4868891;29;20381;-67
2022/05/30 05:53:08;;;;;;;29.27;6.97;;;;;;;35.42;33.03;97435.75;4868514;29;20049;-68
2022/05/30 05:56:03;;;;;;;37.10;6.15;;;;;;;35.40;35.08;97433.31;4870092;29;20108;-67
2022/05/30 05:58:40;;;;;;;26.85;5.78;;;;;;;35.54;36.22;97428.50;4875817;29;20055;-66
2022/05/30 06:01:33;;;;;;;89.90;11.00;;;;;;;35.24;36.62;97434.81;4893744;29;20073;-66
2022/05/30 06:04:23;;;;;;;234.57;21.45;;;;;;;34.79;36.43;97452.47;4895675;29;20072;-67
2022/05/30 06:07:24;;;;;;;268.33;23.10;;;;;;;34.04;37.52;97454.69;4875975;29;20056;-66
2022/05/30 06:10:28;;;;;;;235.73;22.10;;;;;;;34.00;39.21;97461.53;4868351;29;20140;-67
2022/05/30 06:13:20;;;;;;;208.85;19.92;;;;;;;33.23;39.65;97463.75;4869983;29;20049;-68
2022/05/30 06:16:02;;;;;;;236.02;21.15;;;;;;;32.78;41.06;97465.75;4870365;29;20469;-67
2022/05/30 06:19:09;;;;;;;238.07;22.83;;;;;;;32.75;41.08;97460.84;4875195;29;20056;-67
2022/05/30 06:22:03;;;;;;;253.85;20.73;;;;;;;33.04;42.56;97452.22;4873689;29;20160;-68
2022/05/30 06:24:52;;;;;;;212.43;20.95;;;;;;;32.64;41.75;97450.84;4877150;29;20048;-68
2022/05/30 06:27:54;;;;;;;181.85;17.92;;;;;;;32.66;41.96;97451.44;4879771;29;20136;-69
2022/05/30 06:30:57;;;;;;;174.75;16.23;;;;;;;32.63;43.13;97449.22;4885739;29;20076;-69
2022/05/30 06:33:47;;;;;;;137.98;13.45;;;;;;;32.77;42.55;97447.28;4872860;29;20053;-70
2022/05/30 06:36:55;;;;;;;123.57;14.38;;;;;;;32.67;42.99;97437.06;4862854;29;20686;-68
2022/05/30 06:39:46;;;;;;;95.68;12.15;;;;;;;32.76;41.87;97424.31;4897570;29;20139;-69
2022/05/30 06:42:48;;;;;;;109.90;11.90;;;;;;;32.67;42.51;97415.72;4881028;29;20045;-69
2022/05/30 06:45:33;;;;;;;81.75;12.45;;;;;;;33.12;44.30;97418.25;4882380;29;20426;-69
2022/05/30 06:48:41;;;;;;;81.80;10.10;;;;;;;32.77;42.23;97410.75;4883536;29;20071;-69
2022/05/30 06:51:41;;;;;;;81.75;10.93;;;;;;;32.70;41.13;97404.66;4899542;29;20552;-69
2022/05/30 06:54:31;;;;;;;58.80;8.07;;;;;;;33.02;40.37;97414.25;4891428;29;20057;-69
2022/05/30 07:00:22;;;;;;;75.88;8.98;;;;;;;33.15;42.12;97391.09;4872874;29;20073;-69
2022/05/30 07:03:30;;;;;;;53.33;8.50;;;;;;;33.33;41.41;97377.81;4880084;29;20057;-68
2022/05/30 07:06:38;;;;;;;51.65;8.38;;;;;;;33.23;40.15;97366.81;4873000;29;20057;-69
2022/05/30 07:09:50;;;;;;;58.72;7.55;;;;;;;33.43;39.86;97367.44;4872993;29;20056;-69
2022/05/30 07:12:54;;;;;;;29.17;6.28;;;;;;;33.28;40.01;97380.34;4873299;29;20068;-68
2022/05/30 07:15:38;;;;;;;44.00;7.07;;;;;;;32.82;39.79;97365.53;4875822;29;20064;-69
2022/05/30 07:18:33;;;;;;;44.05;6.65;;;;;;;32.85;40.04;97362.44;4896182;29;20449;-68
2022/05/30 07:21:17;;;;;;;34.95;5.93;;;;;;;33.14;40.51;97349.44;4886636;29;20548;-69
2022/05/30 07:24:25;;;;;;;34.83;6.32;;;;;;;33.21;40.77;97353.69;4880783;29;20345;-69
2022/05/30 07:27:32;;;;;;;28.23;6.35;;;;;;;33.32;40.89;97346.78;4877116;29;20138;-68
2022/05/30 07:30:41;;;;;;;47.28;7.90;;;;;;;33.27;40.70;97357.34;4894856;29;20377;-69
2022/05/30 07:33:42;;;;;;;29.77;6.88;;;;;;;33.26;39.35;97355.72;4877750;29;20171;-68
2022/05/30 07:36:49;;;;;;;35.40;7.80;;;;;;;33.38;40.48;97351.25;4885544;29;20064;-70
2022/05/30 07:39:43;;;;;;;44.20;6.63;;;;;;;33.56;40.46;97353.91;4888739;29;20052;-69
2022/05/30 07:42:55;;;;;;;45.08;8.95;;;;;;;33.44;39.82;97340.47;4879012;29;20140;-68
2022/05/30 07:45:53;;;;;;;43.08;6.97;;;;;;;33.74;41.45;97367.28;4871011;29;20053;-69
2022/05/30 07:49:03;;;;;;;52.53;8.15;;;;;;;33.76;40.94;97348.34;4871182;29;20053;-68
2022/05/30 07:52:12;;;;;;;40.40;6.65;;;;;;;33.74;39.36;97356.59;4873091;29;20073;-68
2022/05/30 07:55:09;;;;;;;42.95;6.43;;;;;;;33.48;39.59;97380.09;4881805;29;20061;-69
2022/05/30 07:58:04;;;;;;;43.55;7.57;;;;;;;33.73;42.25;97370.19;4891145;29;20040;-69
2022/05/30 08:00:56;;;;;;;39.72;7.90;;;;;;;33.76;40.35;97369.72;4872494;29;20063;-68
2022/05/30 08:03:41;;;;;;;54.13;9.18;;;;;;;33.80;40.21;97370.91;4872073;29;20064;-69
2022/05/30 08:06:43;;;;;;;40.67;8.02;;;;;;;34.00;40.59;97378.66;4872960;29;20140;-69
2022/05/30 08:09:43;;;;;;;44.42;8.02;;;;;;;34.14;40.41;97375.59;4873263;29;20261;-69
2022/05/30 08:12:42;;;;;;;54.85;9.77;;;;;;;33.93;40.59;97386.75;4872806;29;20347;-68
2022/05/30 08:15:18;;;;;;;47.83;9.52;;;;;;;33.91;41.97;97383.50;4872675;29;21005;-69
2022/05/30 08:18:16;;;;;;;39.42;8.38;;;;;;;33.99;42.80;97391.22;4872916;29;20053;-69
2022/05/30 08:21:03;;;;;;;42.83;8.07;;;;;;;33.64;42.47;97393.69;4884713;29;20081;-69
2022/05/30 08:24:00;;;;;;;47.67;8.77;;;;;;;33.31;43.13;97382.56;4878573;29;20479;-69
2022/05/30 08:26:56;;;;;;;43.80;8.40;;;;;;;33.16;43.67;97377.53;4873662;29;20048;-69
2022/05/30 08:29:47;;;;;;;39.70;8.45;;;;;;;33.24;43.42;97377.28;4876665;29;20057;-69
2022/05/30 08:32:42;;;;;;;41.70;8.15;;;;;;;33.50;44.85;97370.84;4874542;29;20060;-68
2022/05/30 08:35:27;;;;;;;46.95;8.95;;;;;;;33.28;44.69;97375.00;4878719;29;20056;-69
2022/05/30 08:38:16;;;;;;;40.50;9.45;;;;;;;33.43;45.40;97375.44;4899927;29;20052;-68
2022/05/30 08:44:29;;;;;;;33.65;8.73;;;;;;;33.31;45.61;97369.19;4885098;29;20171;-68
2022/05/30 08:47:53;;;;;;;31.23;8.18;;;;;;;33.36;45.05;97372.03;4875313;29;20119;-69
2022/05/30 08:51:00;;;;;;;38.33;8.02;;;;;;;33.47;44.96;97371.28;4883720;29;20052;-69
2022/05/30 08:53:54;;;;;;;31.83;8.52;;;;;;;33.44;44.15;97369.84;4870654;29;20144;-69
2022/05/30 08:56:42;;;;;;;36.08;8.73;;;;;;;33.53;44.17;97374.91;4872982;29;20055;-69
2022/05/30 08:59:59;;;;;;;28.20;8.25;;;;;;;33.55;45.15;97370.97;4872441;29;20595;-68
2022/05/30 09:03:18;;;;;;;49.45;10.65;;;;;;;33.71;44.95;97381.06;4870068;29;20056;-68
2022/05/30 09:06:34;;;;;;;45.35;10.93;;;;;;;33.85;47.07;97370.22;4884167;29;20055;-68
2022/05/30 09:09:35;;;;;;;50.60;9.65;;;;;;;33.96;46.81;97399.69;4874236;29;20041;-69
2022/05/30 09:12:53;;;;;;;36.15;9.20;;;;;;;33.47;46.93;97391.81;4882976;29;20059;-67
2022/05/30 09:16:05;;;;;;;40.22;10.40;;;;;;;33.25;47.77;97388.78;4871688;29;20051;-68
2022/05/30 09:18:55;;;;;;;45.95;9.68;;;;;;;33.35;49.82;97397.09;4900619;29;20068;-69
2022/05/30 09:21:50;;;;;;;29.13;10.25;;;;;;;33.01;50.79;97385.09;4884490;29;20045;-68
2022/05/30 09:24:38;;;;;;;34.90;10.07;;;;;;;33.03;51.77;97399.88;4896868;29;20187;-68
2022/05/30 09:27:27;;;;;;;36.75;11.05;;;;;;;32.78;53.91;97390.22;4896518;29;20051;-71
2022/05/30 09:30:59;;;;;;;47.42;11.20;;;;;;;32.80;53.16;97389.00;4888531;29;20111;-70
2022/05/30 09:34:47;;;;;;;30.30;9.82;;;;;;;32.44;54.31;97388.81;4877368;29;20771;-70
2022/05/30 09:38:19;;;;;;;41.17;10.35;;;;;;;32.32;54.48;97383.38;4873908;29;20196;-69
2022/05/30 09:41:56;;;;;;;44.67;9.18;;;;;;;32.48;55.62;97384.69;4871585;29;20060;-70
2022/05/30 09:44:51;;;;;;;27.30;9.07;;;;;;;32.59;55.37;97391.97;4872303;29;20514;-70
2022/05/30 09:48:20;;;;;;;27.10;8.90;;;;;;;32.44;54.30;97399.47;4862331;29;20076;-70
2022/05/30 09:51:34;;;;;;;42.15;8.70;;;;;;;32.32;54.84;97390.56;4902006;29;20417;-71
2022/05/30 09:54:34;;;;;;;24.42;8.63;;;;;;;32.23;55.43;97395.31;4867198;29;20044;-69
2022/05/30 09:57:35;;;;;;;27.52;8.18;;;;;;;32.25;54.68;97395.91;4882234;29;20049;-69
2022/05/30 10:01:03;;;;;;;39.15;9.15;;;;;;;32.21;54.62;97392.88;4887411;29;20064;-70
2022/05/30 10:03:45;;;;;;;37.40;8.40;;;;;;;32.26;53.91;97390.38;4890612;29;20588;-69
2022/05/30 10:06:42;;;;;;;26.10;7.85;;;;;;;32.35;53.08;97390.09;4893410;29;20136;-69
2022/05/30 10:09:27;;;;;;;37.00;9.02;;;;;;;32.32;51.92;97385.22;4883402;29;20503;-70
2022/05/30 10:12:38;;;;;;;40.03;8.80;;;;;;;32.33;51.68;97369.00;4882860;29;20060;-71
2022/05/30 10:15:34;;;;;;;36.47;8.90;;;;;;;32.36;50.96;97362.41;4880514;29;20052;-71
2022/05/30 10:18:28;;;;;;;41.00;10.32;;;;;;;32.44;51.40;97362.16;4893512;29;20132;-71
2022/05/30 10:21:25;;;;;;;41.53;9.00;;;;;;;32.57;51.41;97362.84;4867761;29;20113;-70
2022/05/30 10:28:59;;;;;;;36.85;8.63;;;;;;;32.82;49.57;97349.53;4870957;29;20120;-69
2022/05/30 10:32:21;;;;;;;43.53;7.63;;;;;;;32.95;49.46;97344.09;4871818;29;20148;-70
2022/05/30 10:35:21;;;;;;;36.67;7.80;;;;;;;32.92;46.31;97357.88;4879745;29;20057;-72
2022/05/30 10:38:43;;;;;;;40.17;7.60;;;;;;;32.87;45.75;97354.22;4872261;29;20105;-70
2022/05/30 10:41:37;;;;;;;38.88;6.25;;;;;;;33.02;45.76;97334.16;4871192;29;20072;-69
2022/05/30 10:44:29;;;;;;;25.90;7.07;;;;;;;32.93;43.58;97335.47;4876150;29;20068;-71
2022/05/30 10:47:35;;;;;;;28.80;5.95;;;;;;;32.90;43.31;97330.56;4875254;29;20056;-71
2022/05/30 10:50:46;;;;;;;28.08;5.63;;;;;;;33.02;43.03;97322.66;4872009;29;20057;-69
2022/05/30 10:54:02;;;;;;;30.38;6.95;;;;;;;32.94;43.80;97322.97;4873101;29;20060;-71
2022/05/30 10:57:25;;;;;;;38.85;8.15;;;;;;;32.96;43.37;97319.03;4872932;29;20049;-71
2022/05/30 11:00:37;;;;;;;34.80;7.20;;;;;;;32.89;42.48;97315.59;5575549;23;20068;-64
2022/05/30 11:03:56;;;;;;;35.53;6.47;;;;;;;32.92;42.22;97312.50;4860374;29;20214;-66
2022/05/30 11:06:47;;;;;;;37.67;5.38;;;;;;;32.88;42.12;97314.00;4852300;29;20160;-66
2022/05/30 11:09:44;;;;;;;36.15;6.38;;;;;;;32.80;41.49;97319.63;4839257;29;20065;-65
2022/05/30 11:12:39;;;;;;;33.90;5.72;;;;;;;32.67;41.55;97314.34;4844296;29;20160;-66
2022/05/30 11:15:31;;;;;;;44.60;6.60;;;;;;;32.66;40.74;97312.72;4844477;29;20566;-64
2022/05/30 11:18:54;;;;;;;45.58;6.68;;;;;;;32.66;41.47;97299.38;4849629;29;20069;-67
2022/05/30 11:22:05;;;;;;;36.47;7.15;;;;;;;32.59;41.68;97296.78;4843417;29;20085;-66
2022/05/30 11:24:51;;;;;;;37.20;7.43;;;;;;;32.57;42.29;97292.69;4842382;29;20359;-66
2022/05/30 11:27:45;;;;;;;26.75;6.57;;;;;;;32.49;42.75;97290.28;4843284;29;20054;-66
2022/05/30 11:30:35;;;;;;;32.47;5.75;;;;;;;32.45;43.41;97283.78;4846337;29;20449;-67
2022/05/30 11:33:44;;;;;;;40.28;6.15;;;;;;;32.37;42.80;97282.22;4841618;29;20062;-66
2022/05/30 11:36:42;;;;;;;28.63;6.25;;;;;;;32.38;43.49;97277.69;4845575;29;20142;-66
2022/05/30 11:39:46;;;;;;;29.15;6.07;;;;;;;32.47;42.96;97287.88;4847739;29;20053;-66
2022/05/30 11:42:54;;;;;;;23.80;7.03;;;;;;;32.35;42.79;97278.13;4849842;29;20053;-66
2022/05/30 11:45:58;;;;;;;32.80;7.22;;;;;;;32.21;43.54;97274.75;4848407;29;20458;-66
2022/05/30 11:49:08;;;;;;;25.17;6.00;;;;;;;32.13;44.14;97265.16;4846005;29;20058;-65
2022/05/30 11:52:25;;;;;;;25.02;5.10;;;;;;;32.21;44.40;97270.25;4846779;29;20061;-67
2022/05/30 11:55:37;;;;;;;28.17;6.40;;;;;;;32.22;44.07;97263.06;4850435;29;20113;-66
2022/05/30 11:58:41;;;;;;;31.42;6.57;;;;;;;32.17;42.40;97260.22;4850014;29;20057;-65
2022/05/30 12:01:34;;;;;;;34.97;6.93;;;;;;;32.05;42.68;97261.94;4850453;29;20052;-65
2022/05/30 12:05:00;;;;;;;36.53;7.70;;;;;;;32.09;42.78;97255.94;4858200;29;20056;-67
2022/05/30 12:07:52;;;;;;;29.65;6.03;;;;;;;32.09;42.78;97261.28;4866967;29;20057;-67
2022/05/30 12:11:01;;;;;;;26.13;6.65;;;;;;;31.94;42.28;97256.25;4863815;29;20776;-61
2022/05/30 12:13:51;;;;;;;34.10;6.63;;;;;;;31.92;42.07;97254.88;4862595;29;20489;-65
2022/05/30 12:16:46;;;;;;;34.50;7.05;;;;;;;31.94;42.64;97255.44;4863355;29;20049;-66
2022/05/30 12:26:10;;;;;;;29.55;6.93;;;;;;;31.77;42.35;97259.69;4859766;29;20061;-65
2022/05/30 12:28:54;;;;;;;28.25;5.85;;;;;;;31.73;42.15;97258.47;4865862;29;20049;-68
2022/05/30 12:31:46;;;;;;;28.55;7.57;;;;;;;31.63;41.74;97248.28;4864277;29;20076;-67
2022/05/30 12:35:10;;;;;;;26.52;5.85;;;;;;;31.62;41.86;97251.16;4865127;29;20053;-65
2022/05/30 12:38:06;;;;;;;26.13;5.28;;;;;;;31.53;42.39;97246.03;4849148;29;20053;-65
2022/05/30 12:41:15;;;;;;;28.35;6.47;;;;;;;31.66;42.58;97244.38;4840668;29;20053;-65
2022/05/30 12:44:05;;;;;;;21.10;5.50;;;;;;;31.65;42.04;97246.22;4889566;29;20724;-66
2022/05/30 12:47:10;;;;;;;25.20;5.68;;;;;;;31.51;41.90;97247.31;4890713;29;20071;-65
2022/05/30 12:50:18;;;;;;;26.17;5.82;;;;;;;31.48;41.96;97245.06;4862957;29;20077;-65
2022/05/30 12:53:05;;;;;;;23.98;6.03;;;;;;;31.48;41.95;97242.41;4862789;29;20117;-65
2022/05/30 12:56:02;;;;;;;30.05;6.43;;;;;;;31.43;42.58;97245.72;4849274;29;20045;-66
2022/05/30 12:58:45;;;;;;;23.58;5.40;;;;;;;31.43;43.27;97248.38;4847233;29;20160;-64
2022/05/30 13:01:37;;;;;;;27.20;5.38;;;;;;;31.36;43.14;97244.94;4854412;29;20049;-63
2022/05/30 13:04:36;;;;;;;25.27;5.50;;;;;;;31.36;43.09;97247.59;4848828;29;20049;-64
2022/05/30 13:07:30;;;;;;;24.17;6.68;;;;;;;31.32;42.80;97248.22;4849809;29;20061;-65
2022/05/30 13:10:19;;;;;;;23.17;5.65;;;;;;;31.30;42.87;97250.25;4848637;29;20049;-66
2022/05/30 13:13:13;;;;;;;17.67;5.78;;;;;;;31.30;43.58;97255.59;4853153;29;20132;-65
2022/05/30 13:16:10;;;;;;;21.95;5.97;;;;;;;31.24;42.79;97254.59;4845703;29;20054;-66
2022/05/30 13:18:55;;;;;;;27.48;5.72;;;;;;;31.23;43.69;97257.47;4840827;29;20061;-65
2022/05/30 13:21:47;;;;;;;19.90;5.72;;;;;;;31.19;43.98;97259.75;4843709;29;20474;-65
2022/05/30 13:24:39;;;;;;;27.10;6.60;;;;;;;31.16;43.19;97257.50;4843303;29;20053;-65
2022/05/30 13:27:21;;;;;;;24.20;6.40;;;;;;;31.11;43.51;97257.31;4841852;29;20081;-65
2022/05/30 13:30:15;;;;;;;22.33;4.90;;;;;;;31.11;42.38;97265.31;4850572;29;20049;-64
2022/05/30 13:33:27;;;;;;;23.38;5.07;;;;;;;31.06;43.69;97268.59;4848442;29;20173;-64
2022/05/30 13:36:35;;;;;;;24.27;5.10;;;;;;;31.05;41.92;97271.44;4860128;29;20108;-66
2022/05/30 13:39:25;;;;;;;27.58;6.45;;;;;;;31.01;42.65;97260.38;4843494;29;20041;-65
2022/05/30 13:42:13;;;;;;;23.27;5.40;;;;;;;31.02;41.82;97271.84;4842495;29;20046;-65
2022/05/30 13:45:03;;;;;;;22.85;5.60;;;;;;;30.98;42.52;97271.44;4843103;29;20061;-65
2022/05/30 13:48:08;;;;;;;22.50;5.55;;;;;;;30.94;42.90;97269.41;4838963;29;20461;-65
2022/05/30 13:51:10;;;;;;;27.77;5.25;;;;;;;30.89;44.05;97271.91;4849016;29;20049;-65
2022/05/30 13:53:59;;;;;;;26.00;6.03;;;;;;;30.84;43.93;97277.84;4841602;29;20133;-65
2022/05/30 13:56:48;;;;;;;21.88;6.80;;;;;;;30.77;43.85;97277.84;4842981;29;20053;-66
2022/05/30 13:59:44;;;;;;;24.85;5.70;;;;;;;30.80;43.46;97279.28;4847264;29;20073;-65
2022/05/30 14:02:52;;;;;;;26.10;5.43;;;;;;;30.74;44.05;97280.09;4848694;29;20082;-66
2022/05/30 14:05:49;;;;;;;19.75;4.68;;;;;;;30.74;43.82;97280.91;4828565;29;20061;-67